Lulu Pass Weather Station

This weather station is located at 10020ft near Lulu Pass at the head of Fisher Creek. This data can be used with temperature and precipitation data from the Fisher Creek SNOTEL site. This data can be viewed directly on datagarrison.com

Elevation
10020ft
Jump to table bottom
Date Time Temperature
deg F
RH, % Wind Speed Wind Gust Wind Direction
03/04/24 20:00 1.9 90 13 24 SW - 227
03/04/24 19:00 2.2 90 11 21 SW - 219
03/04/24 18:00 2.8 90 10 25 SW - 236
03/04/24 17:00 4.0 91 8 21 SW - 247
03/04/24 16:00 4.4 91 13 26 S - 184
03/04/24 15:00 4.6 90 6 19 S - 199
03/04/24 14:00 6.7 90 5 10 S - 202
03/04/24 13:00 9.0 89 3 8 W - 284
03/04/24 12:00 7.1 88 7 14 SW - 211
03/04/24 11:00 3.2 88 9 22 SW - 206
03/04/24 10:00 1.7 89 12 23 SW - 215
03/04/24 09:00 0.6 89 13 22 SW - 211
03/04/24 08:00 -0.3 89 7 21 SW - 225
03/04/24 07:00 -0.6 89 11 21 SW - 226
03/04/24 06:00 -0.5 90 8 19 SW - 220
03/04/24 05:00 -0.3 90 8 17 SW - 216
03/04/24 04:00 -0.9 90 5 12 SW - 247
03/04/24 03:00 -1.1 89 5 17 SW - 236
03/04/24 02:00 -0.7 89 4 13 SW - 241
03/04/24 01:00 -0.6 90 3 9 SW - 234
03/04/24 00:00 -0.8 89 3 7 SW - 229
03/03/24 23:00 -0.9 89 7 18 S - 201
03/03/24 22:00 -0.2 90 7 14 S - 181
03/03/24 21:00 1.1 90 6 9 S - 177
03/03/24 20:00 0.9 90 6 13 SW - 204
03/03/24 19:00 1.5 90 4 13 W - 260
03/03/24 18:00 2.1 90 6 15 SW - 241
03/03/24 17:00 4.0 90 8 17 SW - 240
03/03/24 16:00 4.9 90 11 23 SW - 229
03/03/24 15:00 5.2 89 10 21 SW - 234
03/03/24 14:00 6.7 89 10 20 SW - 239
03/03/24 13:00 5.5 89 8 18 W - 248
03/03/24 12:00 3.0 89 8 18 SW - 243
03/03/24 11:00 2.6 89 8 16 W - 289
03/03/24 10:00 3.7 89 5 11 SW - 247
03/03/24 09:00 1.2 89 5 12 W - 254
03/03/24 08:00 -0.3 89 6 12 NW - 326
03/03/24 07:00 -1.2 89 7 14 NW - 296
03/03/24 06:00 -0.9 90 9 20 SW - 246
03/03/24 05:00 0.2 90 15 28 SW - 230
03/03/24 04:00 1.3 90 18 32 SW - 226
03/03/24 03:00 1.6 90 15 34 SW - 226
03/03/24 02:00 1.6 90 16 35 SW - 230
03/03/24 01:00 2.3 91 17 37 SW - 227
03/03/24 00:00 2.6 91 16 39 SW - 239
03/02/24 23:00 4.0 91 17 33 SW - 215
03/02/24 22:00 4.6 91 20 37 SW - 212
03/02/24 21:00 4.5 91 19 30 SW - 213
03/02/24 20:00 6.1 92 22 38 SW - 205
03/02/24 19:00 8.6 93 22 39 SW - 206